createdAt,value
2023-05-24T00:02:57.854Z,99004.28
2023-05-24T00:08:01.264Z,99014.13
2023-05-24T00:13:06.408Z,99012.00
2023-05-24T00:18:09.285Z,99014.09
2023-05-24T00:23:12.208Z,99005.31
2023-05-24T00:28:16.406Z,99017.28
2023-05-24T00:33:19.260Z,99019.38
2023-05-24T00:38:22.062Z,99025.19
2023-05-24T00:43:26.277Z,99026.84
2023-05-24T00:48:29.134Z,99023.31
2023-05-24T00:53:34.372Z,99016.63
2023-05-24T00:58:38.879Z,99011.13
2023-05-24T01:03:42.032Z,99012.06
2023-05-24T01:09:09.339Z,98998.38
2023-05-24T01:14:21.959Z,99007.47
2023-05-24T01:19:44.831Z,99008.53
2023-05-24T01:25:02.157Z,99006.56
2023-05-24T01:30:08.674Z,99014.13
2023-05-24T01:35:11.569Z,99017.25
2023-05-24T01:40:15.324Z,99008.81
2023-05-24T01:45:26.817Z,99011.56
2023-05-24T01:50:33.237Z,99012.03
2023-05-24T01:55:37.881Z,99009.66
2023-05-24T02:00:43.545Z,99000.19
2023-05-24T02:05:46.914Z,99009.28
2023-05-24T02:10:49.805Z,99014.06
2023-05-24T02:15:55.880Z,99014.63
2023-05-24T02:21:02.413Z,99011.59
2023-05-24T02:26:05.333Z,99006.50
2023-05-24T02:31:10.287Z,99007.69
2023-05-24T02:36:13.356Z,99003.25
2023-05-24T02:41:18.109Z,98998.41
2023-05-24T02:46:22.398Z,98995.47
2023-05-24T02:51:26.306Z,98993.81
2023-05-24T02:56:29.161Z,98988.25
2023-05-24T03:01:34.476Z,98985.13
2023-05-24T03:06:38.732Z,98987.91
2023-05-24T03:11:41.617Z,98983.72
2023-05-24T03:16:46.046Z,98977.06
2023-05-24T03:21:49.122Z,98982.16
2023-05-24T03:26:51.923Z,98966.69
2023-05-24T03:31:56.698Z,98962.78
2023-05-24T03:37:00.320Z,98974.41
2023-05-24T03:42:03.645Z,98973.41
2023-05-24T03:47:08.846Z,98978.63
2023-05-24T03:52:11.915Z,99000.59
2023-05-24T03:57:15.342Z,99007.34
2023-05-24T04:02:19.706Z,99007.16
2023-05-24T04:07:24.556Z,99015.88
2023-05-24T04:25:01.968Z,99030.38
2023-05-24T04:30:05.657Z,99023.72
2023-05-24T04:35:10.297Z,99017.97
2023-05-24T04:40:14.319Z,99015.78
2023-05-24T04:45:20.115Z,99022.25
2023-05-24T04:50:24.707Z,99021.84
2023-05-24T04:55:27.569Z,99034.09
2023-05-24T05:00:30.476Z,99024.19
2023-05-24T05:05:34.751Z,99032.47
2023-05-24T05:10:37.846Z,99039.19
2023-05-24T05:15:42.703Z,99053.09
2023-05-24T05:20:47.449Z,99052.59
2023-05-24T05:25:51.918Z,99060.53
2023-05-24T05:30:56.803Z,99068.47
2023-05-24T05:36:01.208Z,99066.09
2023-05-24T05:41:04.082Z,99072.00
2023-05-24T05:46:07.510Z,99061.41
2023-05-24T05:51:14.630Z,99061.75
2023-05-24T05:56:20.775Z,99071.13
2023-05-24T06:01:24.558Z,99071.81
2023-05-24T06:06:30.856Z,99069.31
2023-05-24T06:11:34.555Z,99074.84
2023-05-24T06:16:41.995Z,99073.59
2023-05-24T06:21:48.520Z,99063.81
2023-05-24T06:26:54.468Z,99058.72
2023-05-24T06:31:57.559Z,99037.25
2023-05-24T06:37:02.442Z,99042.84
2023-05-24T06:42:06.562Z,99039.66
2023-05-24T06:47:13.848Z,99032.88
2023-05-24T06:52:23.293Z,99031.53
2023-05-24T06:57:27.080Z,99038.31
2023-05-24T07:02:29.944Z,99050.97
2023-05-24T07:07:34.550Z,99067.34
2023-05-24T07:12:38.567Z,99070.34
2023-05-24T07:17:41.548Z,99083.25
2023-05-24T07:22:47.661Z,99082.75
2023-05-24T07:27:52.642Z,99087.94
2023-05-24T07:32:55.498Z,99101.81
2023-05-24T07:37:59.767Z,99103.78
2023-05-24T07:43:04.104Z,99109.69
2023-05-24T07:48:07.305Z,99116.75
2023-05-24T07:53:11.864Z,99098.38
2023-05-24T07:58:15.627Z,99092.56
2023-05-24T08:03:19.375Z,99094.75
2023-05-24T08:08:24.433Z,99107.16
2023-05-24T08:13:27.278Z,99116.09
2023-05-24T08:18:30.171Z,99109.97
2023-05-24T08:23:36.368Z,99121.13
2023-05-24T08:28:41.695Z,99111.31
2023-05-24T08:33:44.650Z,99110.75
2023-05-24T08:38:51.330Z,99112.09
2023-05-24T08:43:55.995Z,99108.06
2023-05-24T08:49:01.566Z,99112.00
2023-05-24T08:54:09.039Z,99102.13
2023-05-24T08:59:13.866Z,99102.03
2023-05-24T09:04:17.674Z,99102.72
2023-05-24T09:09:27.636Z,99102.34
2023-05-24T09:14:30.653Z,99083.94
2023-05-24T09:19:33.488Z,99081.50
2023-05-24T09:24:43.718Z,99076.28
2023-05-24T09:29:49.018Z,99055.59
2023-05-24T09:34:53.700Z,99055.13
2023-05-24T09:39:58.181Z,99058.50
2023-05-24T09:45:01.833Z,99052.63
2023-05-24T09:50:09.746Z,99055.84
2023-05-24T09:55:15.291Z,99059.06
2023-05-24T10:00:24.075Z,99045.81
2023-05-24T10:05:30.464Z,99045.78
2023-05-24T10:10:35.119Z,99049.75
2023-05-24T10:15:37.984Z,99052.06
2023-05-24T10:20:41.690Z,99042.69
2023-05-24T10:25:52.196Z,99052.59
2023-05-24T10:31:04.775Z,99048.34
2023-05-24T10:36:10.855Z,99044.38
2023-05-24T10:41:20.449Z,99040.28
2023-05-24T10:46:24.618Z,99036.94
2023-05-24T10:51:36.783Z,99038.06
2023-05-24T10:56:44.770Z,99035.81
2023-05-24T11:01:56.870Z,99035.88
2023-05-24T11:07:03.255Z,99021.97
2023-05-24T11:12:09.188Z,99025.72
2023-05-24T11:17:14.583Z,99035.81
2023-05-24T11:22:17.780Z,99030.63
2023-05-24T11:27:26.229Z,99032.13
2023-05-24T11:32:29.206Z,99025.31
2023-05-24T11:37:45.601Z,99031.75
2023-05-24T11:42:53.641Z,99030.09
2023-05-24T11:47:57.820Z,99033.44
2023-05-24T11:53:05.820Z,99025.97
2023-05-24T11:58:19.797Z,99037.88
2023-05-24T12:03:24.939Z,99033.94
2023-05-24T12:08:28.218Z,99040.16
2023-05-24T12:13:34.059Z,99048.81
2023-05-24T12:18:40.030Z,99039.56
2023-05-24T12:23:49.581Z,99033.78
2023-05-24T12:28:58.201Z,99034.03
2023-05-24T12:34:01.043Z,99033.16
2023-05-24T12:39:18.943Z,99021.84
2023-05-24T12:44:29.432Z,99018.81
2023-05-24T12:49:33.894Z,99021.47
2023-05-24T12:54:37.842Z,99023.97
2023-05-24T12:59:43.853Z,99027.38
2023-05-24T13:04:46.704Z,99021.19
2023-05-24T13:09:50.968Z,99019.16
2023-05-24T13:14:55.955Z,99024.63
2023-05-24T13:19:59.688Z,99021.75
2023-05-24T13:25:02.930Z,99024.72
2023-05-24T13:30:08.664Z,99020.50
2023-05-24T13:35:11.577Z,99009.91
2023-05-24T13:40:14.885Z,98994.16
2023-05-24T13:45:19.161Z,98995.22
2023-05-24T13:50:26.956Z,98999.25
2023-05-24T13:55:30.498Z,99003.38
2023-05-24T14:00:36.988Z,99002.94
2023-05-24T14:05:42.556Z,99001.31
2023-05-24T14:10:47.161Z,98997.06
2023-05-24T14:15:51.377Z,99003.50
2023-05-24T14:20:54.245Z,99004.19
2023-05-24T14:25:58.000Z,99002.81
2023-05-24T14:31:03.835Z,99015.56
2023-05-24T14:36:07.727Z,99015.50
2023-05-24T14:41:11.940Z,99006.41
2023-05-24T14:46:17.023Z,99012.94
2023-05-24T14:51:20.794Z,98997.25
2023-05-24T14:56:25.709Z,98993.81
2023-05-24T15:01:30.470Z,98991.97
2023-05-24T15:06:35.358Z,98990.28
2023-05-24T15:11:39.182Z,98985.16
2023-05-24T15:16:43.447Z,98989.31
2023-05-24T15:21:46.386Z,98992.13
2023-05-24T15:26:49.252Z,98992.06
2023-05-24T15:31:53.366Z,98992.84
2023-05-24T15:36:57.052Z,98996.50
2023-05-24T15:41:59.889Z,98992.97
2023-05-24T15:47:04.252Z,98987.16
2023-05-24T15:52:09.253Z,98993.44
2023-05-24T15:57:13.182Z,98981.22
2023-05-24T16:02:21.374Z,98983.91
2023-05-24T16:07:26.031Z,98979.44
2023-05-24T16:12:30.082Z,98981.75
2023-05-24T16:17:34.507Z,98991.66
2023-05-24T16:22:39.698Z,98991.75
2023-05-24T16:27:42.593Z,98988.88
2023-05-24T16:32:47.259Z,98989.75
2023-05-24T16:37:52.249Z,98993.44
2023-05-24T16:42:55.612Z,98991.84
2023-05-24T16:48:00.379Z,98994.53
2023-05-24T16:53:04.145Z,98993.50
2023-05-24T16:58:08.733Z,98989.69
2023-05-24T17:03:13.083Z,98984.59
2023-05-24T17:08:16.118Z,98986.06
2023-05-24T17:13:18.903Z,98982.13
2023-05-24T17:18:28.900Z,98990.81
2023-05-24T17:23:34.218Z,98979.19
2023-05-24T17:28:38.722Z,98994.81
2023-05-24T17:33:44.667Z,98995.94
2023-05-24T17:38:48.113Z,98994.53
2023-05-24T17:43:51.119Z,98987.94
2023-05-24T17:48:55.910Z,98996.34
2023-05-24T17:53:58.793Z,98994.88
2023-05-24T17:59:01.788Z,98992.19
2023-05-24T18:04:08.459Z,99004.34
2023-05-24T18:09:12.168Z,98997.06
2023-05-24T18:14:15.201Z,99008.63
2023-05-24T18:19:21.197Z,99003.59
2023-05-24T18:24:24.017Z,99008.66
2023-05-24T18:29:26.819Z,99013.72
2023-05-24T18:34:31.097Z,99007.03
2023-05-24T18:39:34.824Z,99012.28
2023-05-24T18:44:41.002Z,99020.13
2023-05-24T18:49:45.520Z,99026.78
2023-05-24T18:54:49.889Z,99023.66
2023-05-24T18:59:52.852Z,99025.00
2023-05-24T19:04:58.134Z,99024.19
2023-05-24T19:10:01.169Z,99030.81
2023-05-24T19:15:04.947Z,99039.41
2023-05-24T19:20:11.203Z,99033.31
2023-05-24T19:25:14.017Z,99046.81
2023-05-24T19:30:18.286Z,99059.81
2023-05-24T19:35:24.719Z,99062.25
2023-05-24T19:40:30.207Z,99066.47
2023-05-24T19:45:34.691Z,99072.28
2023-05-24T19:50:40.256Z,99075.06
2023-05-24T19:55:43.274Z,99083.06
2023-05-24T20:00:46.610Z,99086.69
2023-05-24T20:05:50.679Z,99095.75
2023-05-24T20:10:53.602Z,99094.56
2023-05-24T20:15:56.496Z,99102.94
2023-05-24T20:21:01.081Z,99099.03
2023-05-24T20:26:09.233Z,99098.47
2023-05-24T20:31:13.812Z,99096.44
2023-05-24T20:36:18.019Z,99093.03
2023-05-24T20:41:20.904Z,99106.53
2023-05-24T20:46:23.850Z,99112.66
2023-05-24T20:51:28.147Z,99110.28
2023-05-24T20:56:31.322Z,99117.44
2023-05-24T21:01:34.191Z,99132.03
2023-05-24T21:06:38.652Z,99122.47
2023-05-24T21:11:42.275Z,99120.03
2023-05-24T21:16:45.453Z,99122.94
2023-05-24T21:21:49.681Z,99125.50
2023-05-24T21:26:53.358Z,99122.13
2023-05-24T21:31:56.200Z,99130.03
2023-05-24T21:37:01.116Z,99135.28
2023-05-24T21:42:04.009Z,99133.28
2023-05-24T21:47:06.882Z,99143.78
2023-05-24T21:52:13.165Z,99134.09
2023-05-24T21:57:16.160Z,99143.69
2023-05-24T22:02:19.202Z,99136.66
2023-05-24T22:07:23.474Z,99151.75
2023-05-24T22:12:27.317Z,99147.09
2023-05-24T22:17:32.650Z,99138.03
2023-05-24T22:22:40.080Z,99146.97
2023-05-24T22:27:43.313Z,99150.16
2023-05-24T22:32:46.299Z,99158.22
2023-05-24T22:37:50.850Z,99151.03
2023-05-24T22:42:53.718Z,99149.53
2023-05-24T22:47:58.397Z,99138.25
2023-05-24T22:53:02.755Z,99146.69
2023-05-24T22:58:05.650Z,99143.00
2023-05-24T23:03:08.805Z,99149.88
2023-05-24T23:08:13.693Z,99156.53
2023-05-24T23:13:17.728Z,99163.38
2023-05-24T23:18:22.269Z,99168.31
2023-05-24T23:23:27.308Z,99172.31
2023-05-24T23:28:31.377Z,99174.97
2023-05-24T23:33:34.286Z,99175.34
2023-05-24T23:38:38.497Z,99168.34
2023-05-24T23:43:41.669Z,99168.06
2023-05-24T23:48:44.485Z,99167.13
2023-05-24T23:53:48.685Z,99175.19
2023-05-24T23:58:51.677Z,99178.50
